Tiempo atmosférico en la estación meteorológica de Pontons, Barcelona (630 m.)



Fecha
DESCASC
Temp. máxima en grados centígrados (hora)
DESCASC
Temp. mínima en grados centígrados (hora)
DESCASC
Temp. media en grados centígrados
DESCASC
Racha de viento máxima en m/sg (hora)
DESCASC
Velocidad máxima media en intervalos de 10 minutos(hora)
DESCASC
Precipitaciones diarias en mm
DESCASC
Precipitaciones de 00:00 a 06:00 en mm
DESCASC
Precipitaciones de 06:00 a 12:00 en mm
DESCASC
Precipitaciones de 12:00 a 18:00 en mm
DESCASC
Precipitaciones de 18:00 a 24:00 en mm
DESCASC
27-01-2020 10.1 (13:40) 2.5 (08:30) 6.3 15.83 (21:30) 9.17 (23:59) 0 0 0 0 0
26-01-2020 10.6 (13:40) 3.4 (04:40) 7 10.56 (15:10) 6.67 (14:30) 0 0 0 0 0
25-01-2020 10.2 (13:50) 2.9 (00:00) 6.5 4.17 (14:30) 2.5 (14:50) 1.4 0 0.2 1.2 0
24-01-2020 13.3 (14:30) 0.9 (00:00) 7.1 7.5 (13:10) 5.28 (13:10) 0.2 0.2 0 0 0
23-01-2020 12.2 (15:20) 1.8 (00:00) 7 14.44 (04:10) 8.89 (04:10) 20.8 18.2 2.6 0 0
22-01-2020 9.7 (17:00) 5.1 (00:00) 7.4 13.61 (20:10) 7.78 (21:30) 11.8 3 0 4.8 4
21-01-2020 7.5 (16:40) 2.3 (00:00) 4.9 25.28 (16:40) 13.89 (19:20) 93.4 11.8 27.2 21.2 33.2
20-01-2020 6.7 (13:30) 3.3 (00:00) 5 20 (16:40) 11.39 (14:40) 2.2 0 0 0 2.2
19-01-2020 8 (14:50) 4.6 (00:00) 6.3 14.72 (23:00) 7.5 (21:30) 0.8 0.2 0.6 0 0
18-01-2020 11 (14:50) 2.6 (00:00) 6.8 8.89 (09:10) 5.83 (09:40) 0.4 0 0 0 0.4
17-01-2020 12 (13:10) 4.1 (00:00) 8 19.72 (16:50) 12.78 (15:00) 0 0 0 0 0
16-01-2020 14.3 (13:40) 2.9 (00:00) 8.6 6.11 (14:30) 4.44 (14:40) 0 0 0 0 0
15-01-2020 12.1 (14:10) -1.7 (-00:0) 5.2 10 (13:30) 7.22 (13:30) 0 0 0 0 0
14-01-2020 14.7 (15:50) -0.4 (00:00) 7.1 8.89 (11:20) 6.94 (11:20) 0 0 0 0 0
13-01-2020 11.6 (13:20) 0.3 (00:00) 6 6.39 (03:50) 4.72 (03:50) 0 0 0 0 0
12-01-2020 13.4 (14:50) -0.7 (-00:0) 6.3 7.78 (03:10) 4.44 (02:00) 0 0 0 0 0
11-01-2020 10.1 (16:20) -0.2 (00:00) 5 9.44 (13:50) 6.67 (11:10) 0 0 0 0 0
10-01-2020 9.3 (16:10) 4.4 (00:00) 6.9 8.89 (19:40) 5.83 (17:40) 2 0.2 1.8 0 0
09-01-2020 11.2 (14:20) 1.5 (00:00) 6.3 9.17 (22:40) 6.67 (23:00) 0.2 0 0.2 0 0
08-01-2020 14.9 (14:40) 1.9 (00:00) 8.4 4.17 (12:40) 2.78 (14:00) 0 0 0 0 0
07-01-2020 14.5 (14:10) 0.3 (00:00) 7.4 6.11 (15:10) 3.61 (13:00) 0 0 0 0 0
06-01-2020 12 (15:00) -0.5 (-00:0) 5.8 5 (13:50) 3.33 (14:00) 0 0 0 0 0
05-01-2020 15.7 (14:40) 1.1 (00:00) 8.4 11.67 (02:00) 7.22 (02:00) 0 0 0 0 0
04-01-2020 13.5 (13:30) -0.2 (00:00) 6.6 9.44 (19:30) 6.39 (17:30) 0 0 0 0 0
03-01-2020 9.7 (12:30) 1 (00:00) 5.3 7.5 (01:10) 4.72 (02:00) 0 0 0 0 0
02-01-2020 10 (15:10) -1.8 (-00:0) 4.1 6.39 (21:40) 4.17 (10:30) 0.2 0 0.2 0 0
01-01-2020 12.1 (15:20) -3 (-00:0) 4.6 4.44 (12:20) 3.33 (12:20) 0.2 0 0.2 0 0
31-12-2019 11.5 (15:00) -0.6 (-00:0) 5.4 5.83 (12:30) 3.61 (12:30) 0 0 0 0 0
30-12-2019 10.8 (14:50) 0.1 (00:00) 5.5 6.11 (15:30) 4.72 (15:30) 0 0 0 0 0

Gráficas

Temp. máximas Temp. mínimas Temp. medias Precipitaciones Rachas de viento máximas Velocidades máximas media en intervalos de 10 minutos

Datos horarios

Fecha y hora oficial Temperatura (ºC) Velocidad del viento (km/h) Dirección del viento Racha (km/h) Dirección de racha Precipitación (mm) Presión (hPa) Tendencia (hPa) Humedad (%)
2020-01-28 23:00:00 10.3 18 Noroeste 31 Noroeste 0 -- -- 61
2020-01-28 22:00:00 9.3 16 Noroeste 26 Oeste 0 -- -- 74
2020-01-28 21:00:00 9.3 15 Noroeste 26 Noroeste 0 -- -- 73
2020-01-28 20:00:00 9.8 16 Noroeste 35 Oeste 0 -- -- 70
2020-01-28 19:00:00 10.8 21 Oeste 43 Oeste 0 -- -- 64
2020-01-28 18:00:00 11.1 23 Oeste 51 Oeste 0 -- -- 64
2020-01-28 17:00:00 11.7 30 Oeste 48 Oeste 0 -- -- 60
2020-01-28 16:00:00 12.2 33 Oeste 50 Oeste 0 -- -- 57
2020-01-28 15:00:00 12.5 28 Oeste -- -- -- -- -- 58
2020-01-28 14:00:00 -- -- -- -- -- -- -- -- --
2020-01-28 13:00:00 -- -- -- -- -- -- -- -- --
2020-01-28 12:00:00 11 27 Noroeste 48 Oeste 0 -- -- 67
2020-01-28 11:00:00 10.4 37 Noroeste 50 Noroeste 0 -- -- 68
2020-01-28 10:00:00 9.2 34 Noroeste 51 Noroeste 0 -- -- 71
2020-01-28 09:00:00 8.5 29 Oeste 45 Oeste 0 -- -- 72
2020-01-28 08:00:00 8.4 30 Oeste 48 Noroeste 0 -- -- 70
2020-01-28 07:00:00 8 26 Noroeste 44 Oeste 0 -- -- 70
2020-01-28 06:00:00 8 30 Noroeste 57 Noroeste 0 -- -- 70
2020-01-28 05:00:00 8 34 Noroeste 62 Noroeste 0 -- -- 68
2020-01-28 04:00:00 8.4 45 Noroeste 63 Noroeste 0 -- -- 66
2020-01-28 03:00:00 7.9 33 Noroeste 69 Oeste 0 -- -- 68
2020-01-28 02:00:00 7.6 35 Noroeste 60 Oeste 0 -- -- 69
2020-01-28 01:00:00 7.6 35 Noroeste 61 Oeste 0 -- -- 69
2020-01-28 00:00:00 7.6 33 Noroeste 53 Noroeste 0 -- -- 67
2020-01-27 23:00:00 7.9 32 Noroeste 57 Oeste 0 -- -- 63
2020-01-27 22:00:00 7.5 17 Noroeste 57 Oeste 0 -- -- 63
2020-01-27 21:00:00 7.3 16 Oeste 32 Oeste 0 -- -- 64
2020-01-27 20:00:00 7.6 14 Oeste 44 Oeste 0 -- -- 61
2020-01-27 19:00:00 7.1 18 Noroeste 35 Noroeste 0 -- -- 66
2020-01-27 18:00:00 7.2 10 Oeste 35 Oeste 0 -- -- 64
2020-01-27 17:00:00 7.6 24 Oeste 39 Oeste 0 -- -- 60
2020-01-27 16:00:00 9 25 Noroeste 42 Noroeste 0 -- -- 57
2020-01-27 15:00:00 9.6 23 Noroeste 42 Noroeste 0 -- -- 56
2020-01-27 14:00:00 9.9 23 Noroeste 35 Noroeste 0 -- -- 49
2020-01-27 13:00:00 9.5 23 Oeste 37 Oeste 0 -- -- 53
2020-01-27 12:00:00 8.8 23 Oeste 39 Oeste 0 -- -- 55
2020-01-27 11:00:00 7.6 22 Oeste 34 Oeste 0 -- -- 60
2020-01-27 10:00:00 6.5 19 Oeste 28 Oeste 0 -- -- 63
2020-01-27 09:00:00 3.9 4 Oeste 23 Oeste 0 -- -- 74
2020-01-27 08:00:00 3.8 13 Oeste 31 Noroeste 0 -- -- 75
2020-01-27 07:00:00 4.3 21 Noroeste 27 Noroeste 0 -- -- 74
2020-01-27 06:00:00 4.5 20 Noroeste 26 Noroeste 0 -- -- 73
2020-01-27 05:00:00 4.7 22 Oeste 31 Oeste 0 -- -- 71
2020-01-27 04:00:00 4.5 5 Oeste 12 Oeste 0 -- -- 73
2020-01-27 03:00:00 4 4 Noroeste 9 Oeste 0 -- -- 77
2020-01-27 02:00:00 4.3 5 Oeste 9 Noroeste 0 -- -- 78
2020-01-27 01:00:00 4.8 5 Noroeste 14 Oeste 0 -- -- 79
2020-01-27 00:00:00 4.4 11 Noroeste 13 Noroeste 0 -- -- 84
2020-01-26 23:00:00 5.4 4 Noroeste 17 Noroeste 0 -- -- 84
2020-01-26 22:00:00 5.2 8 Oeste 10 Oeste 0 -- -- 84
2020-01-26 21:00:00 5.1 8 Oeste 12 Oeste 0 -- -- 85
2020-01-26 20:00:00 5.7 9 Oeste 18 Oeste 0 -- -- 83
2020-01-26 19:00:00 6.9 12 Noroeste 21 Oeste 0 -- -- 79
2020-01-26 18:00:00 7.2 8 Noroeste 27 Oeste 0 -- -- 77
2020-01-26 17:00:00 7.8 15 Oeste 31 Noroeste 0 -- -- 76
2020-01-26 16:00:00 8.5 17 Noroeste 38 Noroeste 0 -- -- 73
2020-01-26 15:00:00 9.2 20 Noroeste 36 Noroeste 0 -- -- 69
2020-01-26 14:00:00 10.5 9 Noroeste 31 Noroeste 0 -- -- 68
2020-01-26 13:00:00 10 13 Noroeste 26 Oeste 0 -- -- 71
2020-01-26 12:00:00 9.5 10 Oeste 25 Noroeste 0 -- -- 72
2020-01-26 11:00:00 8.4 10 Oeste 30 Noroeste 0 -- -- 79
2020-01-26 10:00:00 7.5 11 Oeste 22 Oeste 0 -- -- 84
2020-01-26 09:00:00 7 6 Oeste 13 Oeste 0 -- -- 84
2020-01-26 08:00:00 6.3 7 Oeste 12 Oeste 0 -- -- 91
2020-01-26 07:00:00 5.6 8 Noroeste 10 Noroeste 0 -- -- 92
2020-01-26 06:00:00 4.4 6 Noroeste 9 Noroeste 0 -- -- 92
2020-01-26 05:00:00 3.8 4 Noroeste 10 Noroeste 0 -- -- 91
2020-01-26 04:00:00 3.6 6 Noroeste 10 Noroeste 0 -- -- 91
2020-01-26 03:00:00 5.2 4 Noroeste 6 Noroeste 0 -- -- 90
2020-01-26 02:00:00 6.3 2 Noroeste 6 Norte 0 -- -- 90
2020-01-26 01:00:00 6.9 2 Norte 5 Este 0 -- -- 90
2020-01-26 00:00:00 6.5 0 Calma 3 Noroeste 0 -- -- 91
2020-01-25 23:00:00 6 0 Calma 3 Este 0 -- -- 90
2020-01-25 22:00:00 6.2 0 Calma 4 Este 0 -- -- 90
2020-01-25 21:00:00 5.5 2 Este 4 Este 0 -- -- 89
2020-01-25 20:00:00 6.3 0 Calma 5 Este 0 -- -- 88
2020-01-25 19:00:00 7.7 5 Este 8 Nordeste 0 -- -- 87
2020-01-25 18:00:00 7.7 4 Este 11 Este 0 -- -- 86
2020-01-25 17:00:00 8.4 8 Este 12 Este 0 -- -- 84
2020-01-25 16:00:00 8.6 9 Este 12 Este 0 -- -- 84
2020-01-25 15:00:00 8.7 7 Sudeste 15 Sudeste 0 -- -- 84
2020-01-25 14:00:00 9.9 2 Oeste 8 Este 0 -- -- 75
2020-01-25 13:00:00 8.4 4 Este 9 Este 1.2 -- -- 79
2020-01-25 12:00:00 7.3 5 Sudeste 13 Sudeste 0.2 -- -- 84
2020-01-25 11:00:00 6.9 3 Sudeste 8 Sudeste 0 -- -- 87
2020-01-25 10:00:00 6.4 4 Este 7 Este 0 -- -- 90
2020-01-25 09:00:00 4.3 5 Noroeste 6 Noroeste 0 -- -- 90
2020-01-25 08:00:00 4.3 0 Calma 4 Noroeste 0 -- -- 90
2020-01-25 07:00:00 3.5 0 Calma 8 Noroeste 0 -- -- 90
2020-01-25 06:00:00 3.2 7 Noroeste 9 Noroeste 0 -- -- 89
2020-01-25 05:00:00 4.1 4 Noroeste 6 Noroeste 0 -- -- 89
2020-01-25 04:00:00 4.8 0 Calma 4 Noroeste 0 -- -- 88
2020-01-25 03:00:00 4.6 3 Noroeste 6 Noroeste 0 -- -- 87
2020-01-25 02:00:00 5.6 5 Oeste 8 Norte 0 -- -- 87
2020-01-25 01:00:00 6.1 5 Noroeste 7 Noroeste 0 -- -- 83
2020-01-25 00:00:00 5.5 6 Noroeste 13 Norte 0 -- -- 84
2020-01-24 23:00:00 5 6 Noroeste 10 Noroeste 0 -- -- 85
2020-01-24 22:00:00 3.7 8 Noroeste 11 Noroeste 0 -- -- 87
2020-01-24 21:00:00 3.7 10 Noroeste 12 Noroeste 0 -- -- 85
2020-01-24 20:00:00 4.1 6 Noroeste 11 Noroeste 0 -- -- 87
2020-01-24 19:00:00 5.8 8 Noroeste 10 Noroeste 0 -- -- 82
2020-01-24 18:00:00 7.9 5 Noroeste 14 Oeste 0 -- -- 77
2020-01-24 17:00:00 10.4 13 Oeste 21 Oeste 0 -- -- 63
2020-01-24 16:00:00 12.5 13 Oeste 20 Oeste 0 -- -- 54
2020-01-24 15:00:00 13.1 7 Sudoeste 17 Oeste 0 -- -- 45
2020-01-24 14:00:00 12.3 12 Oeste 27 Oeste 0 -- -- 48
2020-01-24 13:00:00 11.4 18 Oeste 26 Oeste 0 -- -- 48
2020-01-24 12:00:00 10.9 13 Oeste 18 Oeste 0 -- -- 53
2020-01-24 11:00:00 10 5 Noroeste 8 Noroeste 0 -- -- 62
2020-01-24 10:00:00 5.4 5 Noroeste 9 Noroeste 0 -- -- 86
2020-01-24 09:00:00 1.9 7 Noroeste 12 Noroeste 0 -- -- 89
2020-01-24 08:00:00 1.5 8 Noroeste 11 Noroeste 0 -- -- 89
2020-01-24 07:00:00 1.3 9 Noroeste 12 Noroeste 0 -- -- 88
2020-01-24 06:00:00 1.7 11 Noroeste 15 Noroeste 0 -- -- 90
2020-01-24 05:00:00 0.9 9 Noroeste 12 Noroeste 0.2 -- -- 90
2020-01-24 04:00:00 1.1 8 Noroeste 9 Noroeste 0 -- -- 91
2020-01-24 03:00:00 2.2 7 Noroeste 10 Noroeste 0 -- -- 91
2020-01-24 02:00:00 1.7 6 Noroeste 9 Noroeste 0 -- -- 89
2020-01-24 01:00:00 1.6 6 Noroeste 9 Noroeste 0 -- -- 91
2020-01-24 00:00:00 1.9 7 Noroeste 10 Noroeste 0 -- -- 90
2020-01-23 23:00:00 2 9 Noroeste 10 Noroeste 0 -- -- 90
2020-01-23 22:00:00 2.4 9 Noroeste 10 Noroeste 0 -- -- 91
2020-01-23 21:00:00 2.8 9 Noroeste 11 Noroeste 0 -- -- 90
2020-01-23 20:00:00 2.9 5 Noroeste 9 Noroeste 0 -- -- 89
2020-01-23 19:00:00 4.3 5 Noroeste 6 Noroeste 0 -- -- 88
2020-01-23 18:00:00 6.9 0 Calma 10 Sudeste 0 -- -- 81
2020-01-23 17:00:00 10.5 4 Sudeste 11 Sudeste 0 -- -- 67
2020-01-23 16:00:00 11.8 5 Sur 13 Sur 0 -- -- 60
2020-01-23 15:00:00 9.7 6 Sur 15 Sudeste 0 -- -- 74
2020-01-23 14:00:00 9.2 6 Este 12 Sudeste 0 -- -- 70
2020-01-23 13:00:00 9.2 4 Sudoeste 17 Sudoeste 0 -- -- 72
2020-01-23 12:00:00 8.6 5 Sur 9 Sur 0 -- -- 76
2020-01-23 11:00:00 7.1 4 Sudoeste 13 Sur 0 -- -- 89
2020-01-23 10:00:00 5.9 5 Sudeste 9 Sudeste 1.6 -- -- 90
2020-01-23 09:00:00 4.8 0 Calma 8 Este 0.8 -- -- 90
2020-01-23 08:00:00 4.8 6 Este 14 Este 0.2 -- -- 90
2020-01-23 07:00:00 4.8 2 Sudeste 11 Oeste 0 -- -- 89
2020-01-23 06:00:00 4.6 6 Oeste 17 Noroeste 1.2 -- -- 90
2020-01-23 05:00:00 4.7 11 Oeste 52 Oeste 8.8 -- -- 92
2020-01-23 04:00:00 6.9 25 Sudoeste 51 Este 2.8 -- -- 87
2020-01-23 03:00:00 9.8 24 Este 42 Este 5 -- -- 91
2020-01-23 02:00:00 9.5 14 Este 37 Sudeste 0 -- -- 91
2020-01-23 01:00:00 9.4 19 Este 42 Este 0.4 -- -- 91
2020-01-23 00:00:00 9.6 16 Este 36 Este 1.8 -- -- 91
2020-01-22 23:00:00 9.6 19 Este 42 Este 1.2 -- -- 91
2020-01-22 22:00:00 9.6 24 Este 47 Este 0.2 -- -- 91
2020-01-22 21:00:00 9.6 27 Este 49 Este 0.2 -- -- 91
2020-01-22 20:00:00 9.6 23 Este 48 Este 0.2 -- -- 91
2020-01-22 19:00:00 9.6 23 Este 42 Este 0.4 -- -- 91
2020-01-22 18:00:00 9.6 24 Este 41 Este 0.4 -- -- 91
2020-01-22 17:00:00 9.7 19 Este 40 Este 0.2 -- -- 91
2020-01-22 16:00:00 9.6 24 Este 45 Este 0.4 -- -- 91
2020-01-22 15:00:00 9.5 16 Este 33 Sudeste 2.6 -- -- 90
2020-01-22 14:00:00 9.5 14 Este 23 Este 0.2 -- -- 90
2020-01-22 13:00:00 9.1 9 Este 26 Este 1 -- -- 89
2020-01-22 12:00:00 7.9 12 Este 26 Este 0 -- -- 89
2020-01-22 11:00:00 7.4 10 Este 20 Este 0 -- -- 87
2020-01-22 10:00:00 7.5 12 Este 22 Nordeste 0 -- -- 86
2020-01-22 09:00:00 5.7 15 Este 22 Nordeste 0 -- -- 87
2020-01-22 08:00:00 5.5 14 Nordeste 23 Este 0 -- -- 87
2020-01-22 07:00:00 5.2 12 Nordeste 20 Nordeste 0 -- -- 87
2020-01-22 06:00:00 6 7 Este 24 Este 0 -- -- 86
2020-01-22 05:00:00 6.3 18 Este 30 Nordeste 0 -- -- 87
2020-01-22 04:00:00 5.6 9 Este 21 Este 0 -- -- 87
2020-01-22 03:00:00 6.2 12 Nordeste 22 Nordeste 0 -- -- 87
2020-01-22 02:00:00 5.9 5 Norte 13 Norte 1.4 -- -- 88
2020-01-22 01:00:00 5.7 10 Este 22 Nordeste 1.6 -- -- 88
2020-01-22 00:00:00 5.8 18 Nordeste 27 Nordeste 5 -- -- 89
2020-01-21 23:00:00 5.7 16 Sudeste 84 Sudeste 10.4 -- -- 88
2020-01-21 22:00:00 7.3 35 Este 72 Este 8.6 -- -- 89
2020-01-21 21:00:00 7.3 44 Este 83 Este 4.4 -- -- 88
2020-01-21 20:00:00 7.4 44 Este 84 Este 2.4 -- -- 88
2020-01-21 19:00:00 7.3 46 Este 80 Este 2.4 -- -- 88
2020-01-21 18:00:00 7.4 43 Este 84 Este 2.4 -- -- 88
2020-01-21 17:00:00 7.5 41 Este 91 Este 2 -- -- 88
2020-01-21 16:00:00 7.3 42 Este 76 Este 3.4 -- -- 89
2020-01-21 15:00:00 7.3 39 Este 75 Este 5.8 -- -- 89
2020-01-21 14:00:00 7.4 38 Este 73 Este 3.8 -- -- 89
2020-01-21 13:00:00 7.2 41 Este 73 Este 3.8 -- -- 89
2020-01-21 12:00:00 6.8 42 Este 75 Este 4.8 -- -- 89
2020-01-21 11:00:00 4.9 18 Este 59 Este 7.4 -- -- 89
2020-01-21 10:00:00 4.6 29 Este 50 Nordeste 4.4 -- -- 87
2020-01-21 09:00:00 4 24 Este 45 Nordeste 5 -- -- 89
2020-01-21 08:00:00 3.5 23 Este 47 Este 3.6 -- -- 88
2020-01-21 07:00:00 2.9 23 Este 59 Nordeste 2 -- -- 88
2020-01-21 06:00:00 2.9 29 Este 51 Nordeste 1.8 -- -- 87
2020-01-21 05:00:00 2.5 28 Este 60 Nordeste 1.8 -- -- 86
2020-01-21 04:00:00 2.5 26 Nordeste 54 Este 3.2 -- -- 85
2020-01-21 03:00:00 2.9 31 Este 52 Este 1.4 -- -- 85
2020-01-21 02:00:00 3.1 28 Este 58 Este 3.4 -- -- 83
2020-01-21 01:00:00 4.4 30 Este 67 Este 0.2 -- -- 75
2020-01-21 00:00:00 4.8 31 Este 58 Este 0.2 -- -- 73
2020-01-20 23:00:00 4.3 38 Este 65 Este 1 -- -- 76
2020-01-20 22:00:00 3.5 22 Este 53 Este 0.4 -- -- 80
2020-01-20 21:00:00 3.5 26 Este 51 Este 0.6 -- -- 78
2020-01-20 20:00:00 4.8 30 Este 56 Nordeste 0 -- -- 67
2020-01-20 19:00:00 5.3 34 Este 57 Este 0 -- -- 59
2020-01-20 18:00:00 5 35 Nordeste 63 Nordeste 0 -- -- 60
2020-01-20 17:00:00 5.5 28 Este 72 Este 0 -- -- 58
2020-01-20 16:00:00 6.5 36 Este 58 Este 0 -- -- 53
2020-01-20 15:00:00 6.5 31 Este 67 Nordeste 0 -- -- 52
2020-01-20 14:00:00 6.3 31 Este 57 Este 0 -- -- 53
2020-01-20 13:00:00 6.2 32 Este 55 Este 0 -- -- 53
2020-01-20 12:00:00 5.5 25 Nordeste 46 Nordeste 0 -- -- 54
2020-01-20 11:00:00 4.5 25 Nordeste 55 Nordeste 0 -- -- 56
2020-01-20 10:00:00 4.1 32 Nordeste 55 Nordeste 0 -- -- 57
2020-01-20 09:00:00 4.4 29 Nordeste 62 Nordeste 0 -- -- 55
2020-01-20 08:00:00 4.6 24 Nordeste 43 Este 0 -- -- 49
2020-01-20 07:00:00 4.9 22 Nordeste 51 Nordeste 0 -- -- 44
2020-01-20 06:00:00 5.5 27 Nordeste 49 Nordeste 0 -- -- 33
2020-01-20 05:00:00 5.5 29 Nordeste 53 Nordeste 0 -- -- 29
2020-01-20 04:00:00 5.4 25 Nordeste 54 Nordeste 0 -- -- 27
2020-01-20 03:00:00 5.3 25 Nordeste 58 Nordeste 0 -- -- 27
2020-01-20 02:00:00 5.3 27 Nordeste 51 Nordeste 0 -- -- 24
2020-01-20 01:00:00 5.6 26 Nordeste 45 Nordeste 0 -- -- 21
2020-01-20 00:00:00 5.2 15 Nordeste 46 Nordeste 0 -- -- 22
2020-01-19 23:00:00 5.3 27 Nordeste 53 Nordeste 0 -- -- 22
2020-01-19 22:00:00 5.4 20 Nordeste 51 Norte 0 -- -- 21
2020-01-19 21:00:00 5.7 22 Nordeste 44 Nordeste 0 -- -- 20
2020-01-19 20:00:00 5.9 23 Nordeste 46 Nordeste 0 -- -- 17
2020-01-19 19:00:00 5.9 16 Nordeste 40 Nordeste 0 -- -- 17
2020-01-19 18:00:00 5.9 12 Este 25 Este 0 -- -- 26
2020-01-19 17:00:00 7.2 11 Este 24 Este 0 -- -- 30
2020-01-19 16:00:00 7.8 12 Este 28 Este 0 -- -- 36
2020-01-19 15:00:00 7.9 16 Este 28 Nordeste 0 -- -- 40
2020-01-19 14:00:00 7.6 9 Nordeste 31 Este 0 -- -- 44
2020-01-19 13:00:00 7.4 12 Nordeste 28 Este 0 -- -- 49
2020-01-19 12:00:00 6.1 19 Nordeste 32 Nordeste 0 -- -- 52
2020-01-19 11:00:00 6 13 Nordeste 27 Nordeste 0 -- -- 61
2020-01-19 10:00:00 5 9 Nordeste 17 Nordeste 0 -- -- 89
2020-01-19 09:00:00 4.6 9 Nordeste 23 Nordeste 0.6 -- -- 90
2020-01-19 08:00:00 4.8 7 Este 30 Nordeste 0 -- -- 90
2020-01-19 07:00:00 4.9 17 Este 34 Este 0 -- -- 90
2020-01-19 06:00:00 5.3 12 Este 27 Este 0 -- -- 90
2020-01-19 05:00:00 5.6 11 Este 25 Este 0 -- -- 90
2020-01-19 04:00:00 6.2 12 Este 26 Este 0 -- -- 90
2020-01-19 03:00:00 6.4 15 Este 26 Este 0 -- -- 90
2020-01-19 02:00:00 6.8 7 Este 14 Este 0 -- -- 90
2020-01-19 01:00:00 7.1 3 Sudeste 6 Este 0.2 -- -- 89
2020-01-19 00:00:00 7.2 3 Sudeste 5 Sudeste 0 -- -- 88
2020-01-18 23:00:00 7.2 3 Sudeste 8 Noroeste 0.2 -- -- 87
2020-01-18 22:00:00 7.3 5 Noroeste 13 Noroeste 0.2 -- -- 86
2020-01-18 21:00:00 7.3 8 Noroeste 18 Oeste 0 -- -- 83
2020-01-18 20:00:00 6.9 11 Noroeste 18 Oeste 0 -- -- 80
2020-01-18 19:00:00 6.7 5 Noroeste 19 Oeste 0 -- -- 78
2020-01-18 18:00:00 7.4 10 Oeste 23 Oeste 0 -- -- 73
2020-01-18 17:00:00 9 16 Oeste 23 Oeste 0 -- -- 64
2020-01-18 16:00:00 10.6 15 Oeste 26 Oeste 0 -- -- 53
2020-01-18 15:00:00 10.9 16 Oeste 28 Noroeste 0 -- -- 47
2020-01-18 14:00:00 10.3 18 Oeste 30 Oeste 0 -- -- 45
2020-01-18 13:00:00 10.7 11 Oeste 24 Oeste 0 -- -- 40
2020-01-18 12:00:00 9.6 9 Sudoeste 18 Oeste 0 -- -- 42
2020-01-18 11:00:00 7.9 4 Oeste 23 Oeste 0 -- -- 48
2020-01-18 10:00:00 5.9 14 Noroeste 32 Noroeste 0 -- -- 53
2020-01-18 09:00:00 4.4 20 Oeste 28 Oeste 0 -- -- 58
2020-01-18 08:00:00 4.5 15 Noroeste 24 Oeste 0 -- -- 55
2020-01-18 07:00:00 4.8 8 Oeste 17 Noroeste 0 -- -- 51
2020-01-18 06:00:00 5 2 Noroeste 17 Noroeste 0 -- -- 49
2020-01-18 05:00:00 5 9 Noroeste 21 Noroeste 0 -- -- 50
2020-01-18 04:00:00 4.4 13 Noroeste 22 Oeste 0 -- -- 54
2020-01-18 03:00:00 3.7 9 Oeste 13 Oeste 0 -- -- 56
2020-01-18 02:00:00 2.6 2 Noroeste 18 Noroeste 0 -- -- 62
2020-01-18 01:00:00 3.7 10 Oeste 21 Noroeste 0 -- -- 60
2020-01-18 00:00:00 4.5 3 Noroeste 12 Noroeste 0 -- -- 51
2020-01-17 23:00:00 6.2 13 Noroeste 27 Noroeste 0 -- -- 47
2020-01-17 22:00:00 7.7 12 Noroeste 48 Noroeste 0 -- -- 39
2020-01-17 21:00:00 8.2 23 Noroeste 60 Noroeste 0 -- -- 40
2020-01-17 20:00:00 9 36 Noroeste 68 Noroeste 0 -- -- 38
2020-01-17 19:00:00 9.7 46 Noroeste 69 Noroeste 0 -- -- 36
2020-01-17 18:00:00 9.8 35 Noroeste 67 Noroeste 0 -- -- 39
2020-01-17 17:00:00 11 39 Noroeste 71 Noroeste 0 -- -- 50
2020-01-17 16:00:00 11.3 44 Oeste 63 Oeste 0 -- -- 54
2020-01-17 15:00:00 11.2 46 Oeste 62 Noroeste 0 -- -- 54
2020-01-17 14:00:00 11.5 38 Oeste 57 Oeste 0 -- -- 51
2020-01-17 13:00:00 11.9 33 Noroeste 68 Noroeste 0 -- -- 48
2020-01-17 12:00:00 11.1 25 Oeste 50 Oeste 0 -- -- 51
2020-01-17 11:00:00 10.5 33 Oeste 51 Oeste 0 -- -- 51
2020-01-17 10:00:00 10.7 19 Oeste 35 Noroeste 0 -- -- 49
2020-01-17 09:00:00 8.2 5 Noroeste 24 Noroeste 0 -- -- 62
2020-01-17 08:00:00 8.2 14 Noroeste 35 Noroeste 0 -- -- 63
2020-01-17 07:00:00 9.4 19 Noroeste 39 Noroeste 0 -- -- 58
2020-01-17 06:00:00 7 7 Noroeste 21 Noroeste 0 -- -- 71
2020-01-17 05:00:00 6.7 12 Oeste 17 Oeste 0 -- -- 74
2020-01-17 04:00:00 5.7 12 Noroeste 24 Oeste 0 -- -- 80
2020-01-17 03:00:00 5.8 15 Noroeste 22 Oeste 0 -- -- 80
2020-01-17 02:00:00 6.4 14 Noroeste 21 Noroeste 0 -- -- 75
2020-01-17 01:00:00 5.8 12 Noroeste 16 Noroeste 0 -- -- 74
2020-01-17 00:00:00 6 12 Noroeste 14 Noroeste 0 -- -- 74
2020-01-16 23:00:00 5.9 9 Noroeste 14 Noroeste 0 -- -- 76
2020-01-16 22:00:00 5.8 11 Noroeste 17 Noroeste 0 -- -- 81
2020-01-16 21:00:00 5.8 13 Noroeste 16 Noroeste 0 -- -- 81
2020-01-16 20:00:00 7 10 Noroeste 13 Noroeste 0 -- -- 81
2020-01-16 19:00:00 7.3 6 Noroeste 10 Noroeste 0 -- -- 78
2020-01-16 18:00:00 9.4 7 Noroeste 15 Oeste 0 -- -- 70
2020-01-16 17:00:00 12.6 10 Oeste 19 Sudoeste 0 -- -- 57
2020-01-16 16:00:00 13.6 13 Sudoeste 19 Sudoeste 0 -- -- 52
2020-01-16 15:00:00 13.9 14 Sudoeste 22 Oeste 0 -- -- 50
2020-01-16 14:00:00 14.1 13 Oeste 20 Sudoeste 0 -- -- 48
2020-01-16 13:00:00 14 11 Sudoeste 19 Sudoeste 0 -- -- 49
2020-01-16 12:00:00 13.1 8 Sudoeste 19 Oeste 0 -- -- 50
2020-01-16 11:00:00 11.5 9 Sudoeste 14 Sudoeste 0 -- -- 56
2020-01-16 10:00:00 9.8 3 Noroeste 8 Noroeste 0 -- -- 62
2020-01-16 09:00:00 5.8 6 Noroeste 9 Noroeste 0 -- -- 74
2020-01-16 08:00:00 4.6 6 Noroeste 10 Noroeste 0 -- -- 82
2020-01-16 07:00:00 3.7 7 Noroeste 12 Noroeste 0 -- -- 83
2020-01-16 06:00:00 6.1 2 Oeste 9 Oeste 0 -- -- 71
2020-01-16 05:00:00 6.5 8 Noroeste 14 Noroeste 0 -- -- 69
2020-01-16 04:00:00 6.9 7 Noroeste 10 Noroeste 0 -- -- 67
2020-01-16 03:00:00 6.6 5 Oeste 9 Sudoeste 0 -- -- 69
2020-01-16 02:00:00 6.9 0 Calma 11 Oeste 0 -- -- 68
2020-01-16 01:00:00 7.2 5 Oeste 15 Oeste 0 -- -- 66
2020-01-16 00:00:00 6.8 6 Oeste 13 Oeste 0 -- -- 66
2020-01-15 23:00:00 3.2 7 Noroeste 10 Noroeste 0 -- -- 77
2020-01-15 22:00:00 4.4 3 Norte 12 Noroeste 0 -- -- 73
2020-01-15 21:00:00 3.7 6 Noroeste 9 Noroeste 0 -- -- 72
2020-01-15 20:00:00 5.1 2 Noroeste 9 Este 0 -- -- 68
2020-01-15 19:00:00 7.4 3 Oeste 19 Oeste 0 -- -- 59
2020-01-15 18:00:00 8.6 13 Oeste 22 Oeste 0 -- -- 56
2020-01-15 17:00:00 10.2 18 Oeste 27 Oeste 0 -- -- 51
2020-01-15 16:00:00 11.1 17 Oeste 31 Noroeste 0 -- -- 48
2020-01-15 15:00:00 11.3 19 Noroeste 36 Noroeste 0 -- -- 46
2020-01-15 14:00:00 11.7 20 Noroeste 36 Noroeste 0 -- -- 46
2020-01-15 13:00:00 11.6 18 Noroeste 35 Noroeste 0 -- -- 47
2020-01-15 12:00:00 9.7 20 Noroeste 35 Oeste 0 -- -- 52
2020-01-15 11:00:00 9.2 17 Oeste 26 Oeste 0 -- -- 52
2020-01-15 10:00:00 8 5 Oeste 17 Oeste 0 -- -- 48
2020-01-15 09:00:00 5.7 10 Noroeste 17 Oeste 0 -- -- 50
2020-01-15 08:00:00 3.6 9 Noroeste 15 Oeste 0 -- -- 57
2020-01-15 07:00:00 -0.3 6 Noroeste 10 Noroeste 0 -- -- 71
2020-01-15 06:00:00 -1.4 6 Noroeste 9 Noroeste 0 -- -- 75
2020-01-15 05:00:00 -1.1 7 Noroeste 10 Noroeste 0 -- -- 72
2020-01-15 04:00:00 -0.9 5 Noroeste 13 Noroeste 0 -- -- 76
2020-01-15 03:00:00 -0.1 10 Noroeste 12 Noroeste 0 -- -- 70
2020-01-15 02:00:00 -0.8 10 Noroeste 12 Noroeste 0 -- -- 73
2020-01-15 01:00:00 -0.4 9 Noroeste 13 Noroeste 0 -- -- 69
2020-01-15 00:00:00 0.2 10 Noroeste 13 Noroeste 0 -- -- 73
2020-01-14 23:00:00 -0.4 9 Noroeste 13 Noroeste 0 -- -- 76
2020-01-14 22:00:00 0.4 10 Noroeste 12 Noroeste 0 -- -- 73
2020-01-14 21:00:00 1.2 8 Noroeste 11 Noroeste 0 -- -- 74
2020-01-14 20:00:00 1.8 7 Noroeste 10 Noroeste 0 -- -- 72
2020-01-14 19:00:00 3.8 7 Noroeste 10 Noroeste 0 -- -- 65
2020-01-14 18:00:00 6.6 3 Noroeste 9 Sudoeste 0 -- -- 55
2020-01-14 17:00:00 12 5 Oeste 14 Sudoeste 0 -- -- 36
2020-01-14 16:00:00 14.7 6 Sur 11 Sur 0 -- -- 32
2020-01-14 15:00:00 13.5 9 Sudoeste 18 Oeste 0 -- -- 29
2020-01-14 14:00:00 12.6 12 Oeste 21 Oeste 0 -- -- 32
2020-01-14 13:00:00 12.1 11 Oeste 29 Noroeste 0 -- -- 29
2020-01-14 12:00:00 10.5 15 Oeste 32 Noroeste 0 -- -- 34
2020-01-14 11:00:00 8.6 14 Oeste 23 Noroeste 0 -- -- 39
2020-01-14 10:00:00 7.1 7 Oeste 28 Noroeste 0 -- -- 41
2020-01-14 09:00:00 4.8 17 Noroeste 28 Noroeste 0 -- -- 47
2020-01-14 08:00:00 4.3 9 Oeste 19 Oeste 0 -- -- 46
2020-01-14 07:00:00 5.6 9 Oeste 18 Noroeste 0 -- -- 41
2020-01-14 06:00:00 4.3 3 Noroeste 20 Noroeste 0 -- -- 46
2020-01-14 05:00:00 6.6 15 Noroeste 23 Oeste 0 -- -- 38
2020-01-14 04:00:00 5.9 4 Nordeste 20 Oeste 0 -- -- 38
2020-01-14 03:00:00 6.8 5 Noroeste 26 Oeste 0 -- -- 35
2020-01-14 02:00:00 7 13 Noroeste 19 Noroeste 0 -- -- 33
2020-01-14 01:00:00 4.9 9 Noroeste 14 Noroeste 0 -- -- 37
2020-01-14 00:00:00 1.4 7 Noroeste 11 Noroeste 0 -- -- 55
2020-01-13 23:00:00 0.6 0 Calma 8 Noroeste 0 -- -- 62
2020-01-13 22:00:00 1.1 5 Noroeste 13 Noroeste 0 -- -- 59
2020-01-13 21:00:00 1.9 8 Noroeste 10 Noroeste 0 -- -- 61
2020-01-13 20:00:00 5.5 8 Noroeste 12 Noroeste 0 -- -- 51
2020-01-13 19:00:00 3.6 6 Noroeste 9 Noroeste 0 -- -- 69
2020-01-13 18:00:00 5.9 4 Noroeste 12 Noroeste 0 -- -- 61
2020-01-13 17:00:00 7.9 6 Noroeste 14 Sudoeste 0 -- -- 49
2020-01-13 16:00:00 9.7 11 Sudoeste 18 Sudoeste 0 -- -- 39
2020-01-13 15:00:00 10.3 14 Sudoeste 21 Sudoeste 0 -- -- 34
2020-01-13 14:00:00 10.8 14 Sudoeste 20 Sudoeste 0 -- -- 37
2020-01-13 13:00:00 10.9 10 Oeste 18 Oeste 0 -- -- 36
2020-01-13 12:00:00 9.8 8 Sudeste 18 Noroeste 0 -- -- 38
2020-01-13 11:00:00 8.8 12 Noroeste 22 Oeste 0 -- -- 35
2020-01-13 10:00:00 7.4 7 Oeste 16 Oeste 0 -- -- 37
2020-01-13 09:00:00 4.7 7 Oeste 12 Noroeste 0 -- -- 38
2020-01-13 08:00:00 2.2 4 Noroeste 15 Noroeste 0 -- -- 48
2020-01-13 07:00:00 2.5 12 Noroeste 20 Oeste 0 -- -- 51
2020-01-13 06:00:00 3.6 6 Noroeste 20 Oeste 0 -- -- 49
2020-01-13 05:00:00 4 10 Noroeste 20 Oeste 0 -- -- 46
2020-01-13 04:00:00 4.2 13 Oeste 23 Oeste 0 -- -- 44
2020-01-13 03:00:00 3.8 16 Noroeste 22 Oeste 0 -- -- 50
2020-01-13 02:00:00 2.6 9 Noroeste 13 Noroeste 0 -- -- 54
2020-01-13 01:00:00 2.7 7 Noroeste 12 Noroeste 0 -- -- 54
2020-01-13 00:00:00 2.9 8 Noroeste 11 Noroeste 0 -- -- 51
2020-01-12 23:00:00 1.2 7 Noroeste 12 Noroeste 0 -- -- 51
2020-01-12 22:00:00 -0.5 7 Noroeste 12 Noroeste 0 -- -- 63
2020-01-12 21:00:00 0 9 Noroeste 11 Noroeste 0 -- -- 71
2020-01-12 20:00:00 0.6 7 Noroeste 9 Noroeste 0 -- -- 71
2020-01-12 19:00:00 2.5 5 Noroeste 7 Noroeste 0 -- -- 70
2020-01-12 18:00:00 5.1 4 Noroeste 7 Oeste 0 -- -- 67
2020-01-12 17:00:00 12.1 2 Este 12 Sur 0 -- -- 45
2020-01-12 16:00:00 11.9 9 Sudeste 14 Sur 0 -- -- 48
2020-01-12 15:00:00 12.8 8 Sur 15 Sudeste 0 -- -- 45
2020-01-12 14:00:00 11.5 10 Sudeste 14 Sudeste 0 -- -- 48
2020-01-12 13:00:00 9.6 9 Sudeste 18 Sudeste 0 -- -- 53
2020-01-12 12:00:00 10.8 4 Sur 12 Sur 0 -- -- 43
2020-01-12 11:00:00 8.4 4 Oeste 10 Noroeste 0 -- -- 54
2020-01-12 10:00:00 6.6 3 Oeste 7 Oeste 0 -- -- 59
2020-01-12 09:00:00 4.8 5 Noroeste 12 Noroeste 0 -- -- 65
2020-01-12 08:00:00 3.9 6 Noroeste 19 Noroeste 0 -- -- 69
2020-01-12 07:00:00 2.8 12 Oeste 17 Oeste 0 -- -- 75
2020-01-12 06:00:00 3.3 4 Noroeste 11 Norte 0 -- -- 73
2020-01-12 05:00:00 3.6 3 Este 9 Norte 0 -- -- 71
2020-01-12 04:00:00 3.6 2 Noroeste 28 Noroeste 0 -- -- 70
2020-01-12 03:00:00 4.2 8 Oeste 22 Oeste 0 -- -- 68
2020-01-12 02:00:00 4.6 16 Oeste 26 Oeste 0 -- -- 66
2020-01-12 01:00:00 3.4 5 Oeste 18 Noroeste 0 -- -- 68
2020-01-12 00:00:00 2.4 11 Noroeste 15 Noroeste 0 -- -- 76
2020-01-11 23:00:00 0.7 10 Noroeste 14 Noroeste 0 -- -- 81
2020-01-11 22:00:00 0.1 3 Oeste 8 Noroeste 0 -- -- 81
2020-01-11 21:00:00 1.1 4 Oeste 9 Noroeste 0 -- -- 75
2020-01-11 20:00:00 1.2 7 Noroeste 15 Noroeste 0 -- -- 72
2020-01-11 19:00:00 1.4 10 Noroeste 12 Noroeste 0 -- -- 70
2020-01-11 18:00:00 4.1 4 Noroeste 7 Sudeste 0 -- -- 65
2020-01-11 17:00:00 8.7 3 Sudeste 15 Noroeste 0 -- -- 58
2020-01-11 16:00:00 9.6 11 Noroeste 26 Noroeste 0 -- -- 43
2020-01-11 15:00:00 9.5 15 Noroeste 23 Oeste 0 -- -- 44
2020-01-11 14:00:00 8.1 18 Noroeste 34 Noroeste 0 -- -- 48
2020-01-11 13:00:00 8 14 Sudoeste 31 Oeste 0 -- -- 49
2020-01-11 12:00:00 7.1 18 Oeste 33 Oeste 0 -- -- 56
2020-01-11 11:00:00 5.4 23 Oeste 32 Oeste 0 -- -- 62
2020-01-11 10:00:00 4.6 19 Oeste 31 Oeste 0 -- -- 63
2020-01-11 09:00:00 3.2 15 Oeste 32 Oeste 0 -- -- 74
2020-01-11 08:00:00 2.4 23 Oeste 31 Oeste 0 -- -- 80
2020-01-11 07:00:00 2.7 18 Oeste 25 Oeste 0 -- -- 83
2020-01-11 06:00:00 1 3 Noroeste 13 Noroeste 0 -- -- 86
2020-01-11 05:00:00 1.5 6 Noroeste 12 Noroeste 0 -- -- 83
2020-01-11 04:00:00 1.9 5 Noroeste 12 Noroeste 0 -- -- 86
2020-01-11 03:00:00 1.8 6 Noroeste 10 Noroeste 0 -- -- 85
2020-01-11 02:00:00 2.3 4 Noroeste 14 Noroeste 0 -- -- 80
2020-01-11 01:00:00 4.5 9 Noroeste 22 Noroeste 0 -- -- 77
2020-01-11 00:00:00 5 2 Sudoeste 19 Oeste 0 -- -- 77
2020-01-10 23:00:00 5.4 9 Oeste 26 Noroeste 0 -- -- 77
2020-01-10 22:00:00 5.8 15 Noroeste 27 Noroeste 0 -- -- 74
2020-01-10 21:00:00 6.1 15 Noroeste 32 Noroeste 0 -- -- 70
2020-01-10 20:00:00 5.8 18 Noroeste 32 Noroeste 0 -- -- 69
2020-01-10 19:00:00 4.9 5 Oeste 22 Oeste 0 -- -- 78
2020-01-10 18:00:00 5.4 13 Oeste 27 Noroeste 0 -- -- 78
2020-01-10 17:00:00 6.5 13 Noroeste 26 Noroeste 0 -- -- 77
2020-01-10 16:00:00 9.1 13 Noroeste 20 Oeste 0 -- -- 73
2020-01-10 15:00:00 8.2 9 Oeste 19 Oeste 0 -- -- 78
2020-01-10 14:00:00 7.6 10 Oeste 16 Oeste 0 -- -- 79
2020-01-10 13:00:00 6.6 3 Noroeste 9 Este 0 -- -- 84
2020-01-10 12:00:00 5.2 4 Este 19 Este 0.4 -- -- 88
2020-01-10 11:00:00 5 10 Este 15 Este 0.6 -- -- 88
2020-01-10 10:00:00 4.8 3 Sudeste 14 Norte 0 -- -- 87
2020-01-10 09:00:00 4.6 8 Norte 19 Norte 0 -- -- 87
2020-01-10 08:00:00 5.7 7 Nordeste 15 Norte 0 -- -- 87
2020-01-10 07:00:00 5.6 3 Norte 21 Nordeste 0.8 -- -- 87
2020-01-10 06:00:00 6.1 6 Nordeste 13 Nordeste 0.2 -- -- 86
2020-01-10 05:00:00 6.2 6 Este 12 Este 0 -- -- 85
2020-01-10 04:00:00 7 0 Calma 11 Oeste 0 -- -- 86
2020-01-10 03:00:00 7.1 5 Noroeste 16 Noroeste 0 -- -- 85
2020-01-10 02:00:00 7 11 Noroeste 31 Oeste 0 -- -- 86
2020-01-10 01:00:00 6.9 16 Oeste 27 Noroeste 0 -- -- 85
2020-01-10 00:00:00 6.4 12 Oeste 32 Oeste 0 -- -- 85
2020-01-09 23:00:00 6.4 24 Noroeste 33 Noroeste 0 -- -- 84
2020-01-09 22:00:00 6.3 10 Noroeste 23 Noroeste 0 -- -- 86
2020-01-09 21:00:00 6 14 Noroeste 24 Noroeste 0 -- -- 86
2020-01-09 20:00:00 6.4 15 Noroeste 33 Noroeste 0 -- -- 83
2020-01-09 19:00:00 6.5 7 Oeste 21 Noroeste 0 -- -- 84
2020-01-09 18:00:00 6.9 14 Noroeste 18 Oeste 0 -- -- 81
2020-01-09 17:00:00 9.6 8 Noroeste 22 Oeste 0 -- -- 68
2020-01-09 16:00:00 10.9 11 Oeste 23 Oeste 0 -- -- 61
2020-01-09 15:00:00 10.6 15 Oeste 23 Oeste 0 -- -- 63
2020-01-09 14:00:00 10.8 12 Oeste 20 Oeste 0 -- -- 61
2020-01-09 13:00:00 10.7 12 Noroeste 17 Noroeste 0 -- -- 57
2020-01-09 12:00:00 10.1 9 Noroeste 15 Oeste 0 -- -- 70
2020-01-09 11:00:00 9.9 2 Noroeste 7 Noroeste 0 -- -- 72
2020-01-09 10:00:00 6.1 6 Noroeste 10 Noroeste 0 -- -- 90
2020-01-09 09:00:00 2.3 6 Noroeste 12 Noroeste 0.2 -- -- 89
2020-01-09 08:00:00 2.3 10 Noroeste 12 Noroeste 0 -- -- 91
2020-01-09 07:00:00 3 10 Noroeste 14 Noroeste 0 -- -- 91
2020-01-09 06:00:00 2.4 8 Noroeste 10 Noroeste 0 -- -- 91
2020-01-09 05:00:00 2.5 9 Noroeste 12 Noroeste 0 -- -- 90
2020-01-09 04:00:00 3 10 Noroeste 12 Noroeste 0 -- -- 90
2020-01-09 03:00:00 3.1 8 Noroeste 11 Noroeste 0 -- -- 89
2020-01-09 02:00:00 3.1 9 Noroeste 12 Noroeste 0 -- -- 90
2020-01-09 01:00:00 2.8 8 Noroeste 10 Noroeste 0 -- -- 89
2020-01-09 00:00:00 3.3 8 Noroeste 11 Noroeste 0 -- -- 89
2020-01-08 23:00:00 3.1 7 Noroeste 10 Noroeste 0 -- -- 89
2020-01-08 22:00:00 3.7 8 Noroeste 10 Noroeste 0 -- -- 89
2020-01-08 21:00:00 4.8 8 Noroeste 11 Noroeste 0 -- -- 85
2020-01-08 20:00:00 5.5 7 Noroeste 10 Noroeste 0 -- -- 85
2020-01-08 19:00:00 6.6 5 Noroeste 10 Noroeste 0 -- -- 82
2020-01-08 18:00:00 8.7 5 Oeste 10 Sudeste 0 -- -- 78
2020-01-08 17:00:00 12.2 5 Sudeste 10 Sudeste 0 -- -- 62
2020-01-08 16:00:00 12.8 7 Sudeste 13 Sudeste 0 -- -- 60
2020-01-08 15:00:00 14.1 7 Sudeste 14 Sudeste 0 -- -- 55
2020-01-08 14:00:00 14 10 Sudeste 15 Sudeste 0 -- -- 54
2020-01-08 13:00:00 13.5 5 Sur 15 Sudeste 0 -- -- 48
2020-01-08 12:00:00 11.9 5 Noroeste 11 Oeste 0 -- -- 62
2020-01-08 11:00:00 9.7 2 Sudoeste 13 Sudeste 0 -- -- 72
2020-01-08 10:00:00 7.2 3 Sudeste 10 Este 0 -- -- 77
2020-01-08 09:00:00 2.9 6 Noroeste 10 Noroeste 0 -- -- 79
2020-01-08 08:00:00 2 4 Noroeste 8 Noroeste 0 -- -- 72
2020-01-08 07:00:00 2.4 5 Noroeste 9 Noroeste 0 -- -- 69
2020-01-08 06:00:00 2.7 5 Noroeste 7 Noroeste 0 -- -- 65
2020-01-08 05:00:00 3.9 0 Calma 7 Noroeste 0 -- -- 60
2020-01-08 04:00:00 3.3 5 Noroeste 8 Noroeste 0 -- -- 59
2020-01-08 03:00:00 2.9 5 Noroeste 8 Oeste 0 -- -- 61
2020-01-08 02:00:00 2.1 8 Noroeste 9 Noroeste 0 -- -- 64
2020-01-08 01:00:00 3 4 Noroeste 10 Noroeste 0 -- -- 59
2020-01-08 00:00:00 2.1 9 Noroeste 13 Noroeste 0 -- -- 64
2020-01-07 23:00:00 2.6 10 Noroeste 14 Noroeste 0 -- -- 64
2020-01-07 22:00:00 2.4 11 Noroeste 14 Noroeste 0 -- -- 65
2020-01-07 21:00:00 2.3 8 Noroeste 10 Noroeste 0 -- -- 66
2020-01-07 20:00:00 3.2 8 Noroeste 10 Noroeste 0 -- -- 64
2020-01-07 19:00:00 5.2 3 Noroeste 12 Oeste 0 -- -- 58
2020-01-07 18:00:00 7 6 Noroeste 13 Oeste 0 -- -- 56
2020-01-07 17:00:00 11.1 9 Noroeste 21 Oeste 0 -- -- 41
2020-01-07 16:00:00 12.3 12 Oeste 22 Noroeste 0 -- -- 36
2020-01-07 15:00:00 13.6 9 Noroeste 18 Noroeste 0 -- -- 37
2020-01-07 14:00:00 14.2 3 Nordeste 16 Este 0 -- -- 37
2020-01-07 13:00:00 12.1 13 Este 16 Este 0 -- -- 54
2020-01-07 12:00:00 11.6 4 Este 7 Este 0 -- -- 55
2020-01-07 11:00:00 10.6 0 Calma 6 Noroeste 0 -- -- 62
2020-01-07 10:00:00 5.6 4 Noroeste 9 Noroeste 0 -- -- 84
2020-01-07 09:00:00 2.2 6 Noroeste 12 Noroeste 0 -- -- 87
2020-01-07 08:00:00 2.1 8 Noroeste 12 Noroeste 0 -- -- 90
2020-01-07 07:00:00 1.5 9 Noroeste 12 Noroeste 0 -- -- 90
2020-01-07 06:00:00 1.8 8 Noroeste 13 Noroeste 0 -- -- 88
2020-01-07 05:00:00 1 8 Noroeste 12 Noroeste 0 -- -- 87
2020-01-07 04:00:00 2.2 8 Noroeste 12 Noroeste 0 -- -- 89
2020-01-07 03:00:00 0.4 8 Noroeste 13 Noroeste 0 -- -- 86
2020-01-07 02:00:00 0.6 10 Noroeste 14 Noroeste 0 -- -- 87
2020-01-07 01:00:00 0.6 9 Noroeste 10 Noroeste 0 -- -- 89
2020-01-07 00:00:00 0.6 7 Noroeste 12 Noroeste 0 -- -- 87
2020-01-06 23:00:00 0.9 7 Noroeste 11 Noroeste 0 -- -- 87
2020-01-06 22:00:00 1.7 7 Noroeste 12 Noroeste 0 -- -- 85
2020-01-06 21:00:00 3.1 8 Noroeste 12 Noroeste 0 -- -- 89
2020-01-06 20:00:00 3.6 6 Noroeste 9 Noroeste 0 -- -- 85
2020-01-06 19:00:00 4.3 7 Noroeste 10 Noroeste 0 -- -- 80
2020-01-06 18:00:00 5.6 4 Noroeste 6 Noroeste 0 -- -- 75
2020-01-06 17:00:00 11.2 2 Sudeste 14 Sudeste 0 -- -- 56
2020-01-06 16:00:00 11.4 9 Sudeste 14 Sudeste 0 -- -- 52
2020-01-06 15:00:00 12 7 Sudeste 15 Sudeste 0 -- -- 54
2020-01-06 14:00:00 10.9 12 Sudeste 18 Sudeste 0 -- -- 59
2020-01-06 13:00:00 10.7 8 Sudeste 12 Sur 0 -- -- 58
2020-01-06 12:00:00 10.1 5 Sudeste 11 Sudeste 0 -- -- 58
2020-01-06 11:00:00 8.6 5 Sudeste 8 Sudeste 0 -- -- 61
2020-01-06 10:00:00 4.3 5 Noroeste 11 Noroeste 0 -- -- 79